createdAt,value
2022-08-17T00:00:18.259Z,52.42
2022-08-17T00:03:06.695Z,52.50
2022-08-17T00:05:38.636Z,52.55
2022-08-17T00:08:06.051Z,51.78
2022-08-17T00:10:33.470Z,51.51
2022-08-17T00:13:02.933Z,51.23
2022-08-17T00:15:29.958Z,50.69
2022-08-17T00:17:59.776Z,50.67
2022-08-17T00:20:30.435Z,50.59
2022-08-17T00:23:07.505Z,50.42
2022-08-17T00:25:38.960Z,50.10
2022-08-17T00:28:06.215Z,49.03
2022-08-17T00:30:51.316Z,49.03
2022-08-17T00:33:27.163Z,48.78
2022-08-17T00:35:55.821Z,48.99
2022-08-17T00:38:23.855Z,49.08
2022-08-17T00:40:55.638Z,48.86
2022-08-17T00:43:36.838Z,48.76
2022-08-17T00:46:11.238Z,48.79
2022-08-17T00:48:39.149Z,48.81
2022-08-17T00:51:20.567Z,48.24
2022-08-17T00:53:55.451Z,48.39
2022-08-17T00:56:32.551Z,48.63
2022-08-17T00:58:59.673Z,48.64
2022-08-17T01:01:26.744Z,48.35
2022-08-17T01:03:55.631Z,48.81
2022-08-17T01:06:29.038Z,48.72
2022-08-17T01:08:57.996Z,48.53
2022-08-17T01:11:26.025Z,48.96
2022-08-17T01:13:55.864Z,49.51
2022-08-17T01:16:31.087Z,49.51
2022-08-17T01:19:07.242Z,49.37
2022-08-17T01:21:46.345Z,49.65
2022-08-17T01:24:14.173Z,49.68
2022-08-17T01:26:43.056Z,49.77
2022-08-17T01:29:16.096Z,49.59
2022-08-17T01:31:47.287Z,49.80
2022-08-17T01:34:15.971Z,49.87
2022-08-17T01:36:46.606Z,49.99
2022-08-17T01:39:24.480Z,50.27
2022-08-17T01:41:54.076Z,50.05
2022-08-17T01:44:22.072Z,50.21
2022-08-17T01:46:50.063Z,50.45
2022-08-17T01:49:19.616Z,50.12
2022-08-17T01:51:46.463Z,50.31
2022-08-17T01:54:16.077Z,50.30
2022-08-17T01:56:47.619Z,50.28
2022-08-17T01:59:19.845Z,50.44
2022-08-17T02:01:47.053Z,50.09
2022-08-17T02:04:16.731Z,50.21
2022-08-17T02:06:52.843Z,50.50
2022-08-17T02:09:29.781Z,50.61
2022-08-17T02:12:00.010Z,50.64
2022-08-17T02:14:47.633Z,50.75
2022-08-17T02:17:14.559Z,51.14
2022-08-17T02:19:41.839Z,51.01
2022-08-17T02:22:09.159Z,51.69
2022-08-17T02:24:59.360Z,51.94
2022-08-17T02:27:29.837Z,52.03
2022-08-17T02:30:01.085Z,52.07
2022-08-17T02:32:28.872Z,52.40
2022-08-17T02:34:57.304Z,52.23
2022-08-17T02:37:25.520Z,52.30
2022-08-17T02:39:52.584Z,52.04
2022-08-17T02:42:25.497Z,52.63
2022-08-17T02:44:52.403Z,52.63
2022-08-17T02:47:19.224Z,52.82
2022-08-17T02:49:54.126Z,53.27
2022-08-17T02:52:42.523Z,52.76
2022-08-17T02:55:23.697Z,52.83
2022-08-17T02:57:51.311Z,52.71
2022-08-17T03:00:22.204Z,52.53
2022-08-17T03:02:50.308Z,52.67
2022-08-17T03:05:20.981Z,52.39
2022-08-17T03:07:47.930Z,52.43
2022-08-17T03:10:15.352Z,52.80
2022-08-17T03:12:43.524Z,52.76
2022-08-17T03:15:18.432Z,52.88
2022-08-17T03:17:45.545Z,52.65
2022-08-17T03:20:13.469Z,52.90
2022-08-17T03:22:53.521Z,52.97
2022-08-17T03:25:24.973Z,53.24
2022-08-17T03:27:55.566Z,53.18
2022-08-17T03:30:23.948Z,52.96
2022-08-17T03:32:53.459Z,52.74
2022-08-17T03:35:25.077Z,52.96
2022-08-17T03:38:00.321Z,52.74
2022-08-17T03:40:41.801Z,53.28
2022-08-17T03:43:19.944Z,53.63
2022-08-17T03:46:24.950Z,53.47
2022-08-17T03:49:14.070Z,53.60
2022-08-17T03:52:01.028Z,53.94
2022-08-17T03:54:46.495Z,53.38
2022-08-17T03:57:13.906Z,53.14
2022-08-17T03:59:40.887Z,53.36
2022-08-17T04:02:11.085Z,53.41
2022-08-17T04:04:39.341Z,53.34
2022-08-17T04:07:06.871Z,53.36
2022-08-17T04:09:34.086Z,53.19
2022-08-17T04:12:04.476Z,53.36
2022-08-17T04:14:36.438Z,52.96
2022-08-17T04:17:20.073Z,52.62
2022-08-17T04:19:47.049Z,52.40
2022-08-17T04:22:31.850Z,52.27
2022-08-17T04:25:17.114Z,52.23
2022-08-17T04:27:44.044Z,52.05
2022-08-17T04:30:14.159Z,52.50
2022-08-17T04:33:04.002Z,52.51
2022-08-17T04:35:55.425Z,52.22
2022-08-17T04:38:26.074Z,52.09
2022-08-17T04:41:12.739Z,52.05
2022-08-17T04:43:44.387Z,51.93
2022-08-17T04:46:17.328Z,51.91
2022-08-17T04:48:52.085Z,52.05
2022-08-17T04:51:20.702Z,51.64
2022-08-17T04:53:54.050Z,51.63
2022-08-17T04:56:24.380Z,51.30
2022-08-17T04:58:54.630Z,51.45
2022-08-17T05:01:28.934Z,51.12
2022-08-17T05:03:59.082Z,51.29
2022-08-17T05:06:27.647Z,51.16
2022-08-17T05:08:55.295Z,51.25
2022-08-17T05:11:23.849Z,50.88
2022-08-17T05:13:50.793Z,50.93
2022-08-17T05:16:19.486Z,50.82
2022-08-17T05:18:46.870Z,50.28
2022-08-17T05:21:14.648Z,50.71
2022-08-17T05:23:43.560Z,50.39
2022-08-17T05:26:25.652Z,50.42
2022-08-17T05:29:00.529Z,50.22
2022-08-17T05:31:31.137Z,50.21
2022-08-17T05:33:59.140Z,50.36
2022-08-17T05:36:43.414Z,50.14
2022-08-17T05:39:16.545Z,49.75
2022-08-17T05:41:48.187Z,50.22
2022-08-17T05:44:16.020Z,49.97
2022-08-17T05:46:48.493Z,49.77
2022-08-17T05:49:20.080Z,49.54
2022-08-17T05:52:20.792Z,49.24
2022-08-17T05:55:11.974Z,48.66
2022-08-17T05:57:53.271Z,48.49
2022-08-17T06:00:30.360Z,48.20
2022-08-17T06:03:16.781Z,47.75
2022-08-17T06:05:52.123Z,47.88
2022-08-17T06:08:54.484Z,47.14
2022-08-17T06:11:45.479Z,48.06
2022-08-17T06:14:32.977Z,47.65
2022-08-17T06:17:08.157Z,47.36
2022-08-17T06:19:39.867Z,47.89
2022-08-17T06:22:09.493Z,47.91
2022-08-17T06:24:42.045Z,47.48
2022-08-17T06:27:19.818Z,47.55
2022-08-17T06:29:51.117Z,47.69
2022-08-17T06:32:19.005Z,47.29
2022-08-17T06:34:46.474Z,47.04
2022-08-17T06:37:26.944Z,46.83
2022-08-17T06:40:15.894Z,46.38
2022-08-17T06:43:07.361Z,44.70
2022-08-17T06:45:43.889Z,43.79
2022-08-17T06:48:13.842Z,42.88
2022-08-17T06:51:10.141Z,42.41
2022-08-17T06:53:49.130Z,42.07
2022-08-17T06:56:53.408Z,41.50
2022-08-17T06:59:54.660Z,41.73
2022-08-17T07:02:29.098Z,41.48
2022-08-17T07:05:10.104Z,42.50
2022-08-17T07:07:57.139Z,43.34
2022-08-17T07:10:25.862Z,43.10
2022-08-17T07:12:54.596Z,42.50
2022-08-17T07:15:45.078Z,42.22
2022-08-17T07:18:12.062Z,41.79
2022-08-17T07:20:42.954Z,40.72
2022-08-17T07:23:28.358Z,40.13
2022-08-17T07:26:07.318Z,39.69
2022-08-17T07:28:36.179Z,39.54
2022-08-17T07:31:04.721Z,39.34
2022-08-17T07:33:36.930Z,39.41
2022-08-17T07:36:04.180Z,38.56
2022-08-17T07:38:33.237Z,39.04
2022-08-17T07:41:05.372Z,38.71
2022-08-17T07:43:35.258Z,38.17
2022-08-17T07:46:30.296Z,38.81
2022-08-17T07:49:16.665Z,39.13
2022-08-17T07:51:43.814Z,39.55
2022-08-17T07:54:22.524Z,39.88
2022-08-17T07:56:51.131Z,40.23
2022-08-17T07:59:24.116Z,40.91
2022-08-17T08:01:58.143Z,41.02
2022-08-17T08:07:22.182Z,41.51
2022-08-17T08:10:35.556Z,41.91
2022-08-17T08:13:15.742Z,42.13
2022-08-17T08:15:53.621Z,42.64
2022-08-17T08:18:53.754Z,43.01
2022-08-17T08:21:41.801Z,43.16
2022-08-17T08:24:11.661Z,43.77
2022-08-17T08:26:41.485Z,43.63
2022-08-17T08:29:29.961Z,43.68
2022-08-17T08:32:00.114Z,44.23
2022-08-17T08:35:02.710Z,44.93
2022-08-17T08:38:08.731Z,44.85
2022-08-17T08:40:55.451Z,44.61
2022-08-17T08:43:37.375Z,44.96
2022-08-17T08:46:23.041Z,45.51
2022-08-17T08:49:18.404Z,46.09
2022-08-17T08:51:53.145Z,46.26
2022-08-17T08:54:35.676Z,46.44
2022-08-17T08:57:26.919Z,46.50
2022-08-17T09:00:16.401Z,46.81
2022-08-17T09:03:04.477Z,47.19
2022-08-17T09:05:40.671Z,47.30
2022-08-17T09:08:16.858Z,47.64
2022-08-17T09:10:59.918Z,47.39
2022-08-17T09:13:59.214Z,47.23
2022-08-17T09:16:56.308Z,47.26
2022-08-17T09:19:59.460Z,46.84
2022-08-17T09:22:36.911Z,46.89
2022-08-17T09:25:12.171Z,46.86
2022-08-17T09:28:03.567Z,47.01
2022-08-17T09:31:03.799Z,47.61
2022-08-17T09:33:34.968Z,47.87
2022-08-17T09:36:26.795Z,47.67
2022-08-17T09:38:58.412Z,47.69
2022-08-17T09:41:33.711Z,47.45
2022-08-17T09:44:30.118Z,47.29
2022-08-17T09:47:28.012Z,47.17
2022-08-17T09:50:11.519Z,47.53
2022-08-17T09:52:39.281Z,48.04
2022-08-17T09:55:06.555Z,48.09
2022-08-17T09:57:42.904Z,48.49
2022-08-17T10:00:16.560Z,49.67
2022-08-17T10:03:03.255Z,50.82
2022-08-17T10:05:43.220Z,51.34
2022-08-17T10:08:36.404Z,51.07
2022-08-17T10:11:13.311Z,49.97
2022-08-17T10:13:53.093Z,49.88
2022-08-17T10:16:29.868Z,49.22
2022-08-17T10:19:08.271Z,48.76
2022-08-17T10:22:01.214Z,47.81
2022-08-17T10:25:23.474Z,47.10
2022-08-17T10:27:55.012Z,45.35
2022-08-17T10:30:25.549Z,44.62
2022-08-17T10:33:01.958Z,44.00
2022-08-17T10:35:41.338Z,43.47
2022-08-17T10:38:31.333Z,43.27
2022-08-17T10:41:07.049Z,43.28
2022-08-17T10:43:36.913Z,43.13
2022-08-17T10:46:30.905Z,42.80
2022-08-17T10:49:17.385Z,42.44
2022-08-17T10:51:48.174Z,41.81
2022-08-17T10:54:24.189Z,41.34
2022-08-17T10:56:53.930Z,40.28
2022-08-17T10:59:36.322Z,39.34
2022-08-17T11:02:28.159Z,38.58
2022-08-17T11:05:04.356Z,38.38
2022-08-17T11:07:37.190Z,38.54
2022-08-17T11:10:32.935Z,39.28
2022-08-17T11:13:09.016Z,40.18
2022-08-17T11:15:52.108Z,40.34
2022-08-17T11:18:19.002Z,40.52
2022-08-17T11:20:48.896Z,40.30
2022-08-17T11:23:38.308Z,39.50
2022-08-17T11:26:25.968Z,39.40
2022-08-17T11:28:59.599Z,40.00
2022-08-17T11:31:38.442Z,39.87
2022-08-17T11:34:22.407Z,40.23
2022-08-17T11:36:52.350Z,40.60
2022-08-17T11:39:23.122Z,40.44
2022-08-17T11:41:58.628Z,40.27
2022-08-17T11:44:32.428Z,40.47
2022-08-17T11:48:08.927Z,40.01
2022-08-17T11:51:47.266Z,38.65
2022-08-17T11:54:34.393Z,38.44
2022-08-17T11:57:29.426Z,37.34
2022-08-17T12:00:10.328Z,37.45
2022-08-17T12:02:48.070Z,37.84
2022-08-17T12:05:26.282Z,37.57
2022-08-17T12:08:05.633Z,36.81
2022-08-17T12:10:36.393Z,37.35
2022-08-17T12:13:13.319Z,36.99
2022-08-17T12:15:45.165Z,37.97
2022-08-17T12:18:28.014Z,37.79
2022-08-17T12:21:22.311Z,39.33
2022-08-17T12:23:56.972Z,39.21
2022-08-17T12:26:35.825Z,40.90
2022-08-17T12:29:39.033Z,41.72
2022-08-17T12:31:55.261Z,41.49
2022-08-17T12:34:36.335Z,40.46
2022-08-17T12:37:07.635Z,40.49
2022-08-17T12:39:35.455Z,40.41
2022-08-17T12:42:04.760Z,40.89
2022-08-17T12:44:35.098Z,41.11
2022-08-17T12:47:21.060Z,40.29
2022-08-17T12:49:51.801Z,40.41
2022-08-17T12:52:28.337Z,39.75
2022-08-17T12:55:21.289Z,39.43
2022-08-17T12:57:54.993Z,40.04
2022-08-17T13:00:41.215Z,40.34
2022-08-17T13:03:21.082Z,40.73
2022-08-17T13:05:56.602Z,40.38
2022-08-17T13:08:34.044Z,40.08
2022-08-17T13:11:04.006Z,39.91
2022-08-17T13:13:36.664Z,39.98
2022-08-17T13:16:09.560Z,40.40
2022-08-17T13:18:38.936Z,40.66
2022-08-17T13:21:11.914Z,39.10
2022-08-17T13:23:39.004Z,40.20
2022-08-17T13:26:15.580Z,40.73
2022-08-17T13:28:49.758Z,40.17
2022-08-17T13:31:27.889Z,40.50
2022-08-17T13:34:26.697Z,41.28
2022-08-17T13:37:17.675Z,42.28
2022-08-17T13:39:51.398Z,42.44
2022-08-17T13:42:52.058Z,41.73
2022-08-17T13:45:36.353Z,40.27
2022-08-17T13:48:16.531Z,38.51
2022-08-17T13:51:03.109Z,38.97
2022-08-17T13:53:40.498Z,39.59
2022-08-17T13:56:37.983Z,40.29
2022-08-17T13:59:36.076Z,40.32
2022-08-17T14:02:21.309Z,39.77
2022-08-17T14:04:48.848Z,40.13
2022-08-17T14:07:18.194Z,40.00
2022-08-17T14:10:10.909Z,38.99
2022-08-17T14:12:39.462Z,39.41
2022-08-17T14:15:08.059Z,39.11
2022-08-17T14:17:38.865Z,39.27
2022-08-17T14:20:09.677Z,40.41
2022-08-17T14:22:39.916Z,40.96
2022-08-17T14:25:10.255Z,40.42
2022-08-17T14:27:41.872Z,39.95
2022-08-17T14:30:22.257Z,40.33
2022-08-17T14:32:49.635Z,40.17
2022-08-17T14:35:17.199Z,40.81
2022-08-17T14:37:48.978Z,39.84
2022-08-17T14:40:21.000Z,39.18
2022-08-17T14:42:48.547Z,38.75
2022-08-17T14:45:30.458Z,38.79
2022-08-17T14:48:08.498Z,40.29
2022-08-17T14:50:39.196Z,40.68
2022-08-17T14:53:07.731Z,41.24
2022-08-17T14:55:36.370Z,40.92
2022-08-17T14:58:04.169Z,41.22
2022-08-17T15:00:32.476Z,42.17
2022-08-17T15:03:01.298Z,42.75
2022-08-17T15:05:32.408Z,43.70
2022-08-17T15:08:03.280Z,43.86
2022-08-17T15:10:32.998Z,44.08
2022-08-17T15:13:00.451Z,43.68
2022-08-17T15:15:28.333Z,43.49
2022-08-17T15:17:56.162Z,43.13
2022-08-17T15:20:27.747Z,42.93
2022-08-17T15:22:56.061Z,43.16
2022-08-17T15:25:24.819Z,43.29
2022-08-17T15:27:52.152Z,43.03
2022-08-17T15:30:21.014Z,42.75
2022-08-17T15:32:51.187Z,42.97
2022-08-17T15:35:28.026Z,43.03
2022-08-17T15:37:57.888Z,42.43
2022-08-17T15:40:25.242Z,41.93
2022-08-17T15:42:53.051Z,42.74
2022-08-17T15:45:24.723Z,43.40
2022-08-17T15:47:53.592Z,43.09
2022-08-17T15:50:21.100Z,42.23
2022-08-17T15:52:55.348Z,42.43
2022-08-17T15:55:24.286Z,42.24
2022-08-17T15:57:53.377Z,42.44
2022-08-17T16:00:27.970Z,43.25
2022-08-17T16:03:46.050Z,42.97
2022-08-17T16:05:44.830Z,43.93
2022-08-17T16:08:21.271Z,44.09
2022-08-17T16:10:50.288Z,43.75
2022-08-17T16:13:18.925Z,43.58
2022-08-17T16:15:57.282Z,43.32
2022-08-17T16:18:31.445Z,44.10
2022-08-17T16:21:24.174Z,44.29
2022-08-17T16:26:39.283Z,44.46
2022-08-17T16:29:08.440Z,45.06
2022-08-17T16:31:37.918Z,44.99
2022-08-17T16:34:17.527Z,44.83
2022-08-17T16:36:55.242Z,44.66
2022-08-17T16:39:33.891Z,44.97
2022-08-17T16:42:03.049Z,44.83
2022-08-17T16:44:32.397Z,44.76
2022-08-17T16:47:03.022Z,45.07
2022-08-17T16:49:37.199Z,45.28
2022-08-17T16:52:10.605Z,44.84
2022-08-17T16:54:41.990Z,45.83
2022-08-17T16:57:11.392Z,45.94
2022-08-17T16:59:42.633Z,46.11
2022-08-17T17:02:13.691Z,46.55
2022-08-17T17:05:03.098Z,46.62
2022-08-17T17:07:44.654Z,46.94
2022-08-17T17:10:27.699Z,46.87
2022-08-17T17:13:02.781Z,46.99
2022-08-17T17:15:56.388Z,47.19
2022-08-17T17:18:41.106Z,47.34
2022-08-17T17:21:14.361Z,47.69
2022-08-17T17:23:45.213Z,48.52
2022-08-17T17:27:02.204Z,48.51
2022-08-17T17:30:00.643Z,47.96
2022-08-17T17:32:38.284Z,47.65
2022-08-17T17:35:17.390Z,47.74
2022-08-17T17:37:45.983Z,47.90
2022-08-17T17:40:36.138Z,47.82
2022-08-17T17:43:34.777Z,47.94
2022-08-17T17:46:26.625Z,47.87
2022-08-17T17:48:46.314Z,47.71
2022-08-17T17:52:08.550Z,48.37
2022-08-17T17:54:46.857Z,47.95
2022-08-17T17:57:33.902Z,47.95
2022-08-17T18:00:14.376Z,48.44
2022-08-17T18:02:51.503Z,49.02
2022-08-17T18:05:39.801Z,49.28
2022-08-17T18:08:32.396Z,49.61
2022-08-17T18:11:24.053Z,49.46
2022-08-17T18:14:00.829Z,49.84
2022-08-17T18:16:32.079Z,50.31
2022-08-17T18:18:59.809Z,50.21
2022-08-17T18:21:48.200Z,50.75
2022-08-17T18:24:15.214Z,51.28
2022-08-17T18:26:47.917Z,51.56
2022-08-17T18:29:28.032Z,52.23
2022-08-17T18:32:12.847Z,52.30
2022-08-17T18:34:48.282Z,52.78
2022-08-17T18:37:36.090Z,53.18
2022-08-17T18:40:20.631Z,53.58
2022-08-17T18:43:07.978Z,53.76
2022-08-17T18:45:45.442Z,53.90
2022-08-17T18:48:36.791Z,54.09
2022-08-17T18:51:49.413Z,54.17
2022-08-17T18:54:16.811Z,54.37
2022-08-17T18:56:49.485Z,54.19
2022-08-17T19:02:20.700Z,55.17
2022-08-17T19:05:13.451Z,55.21
2022-08-17T19:07:43.551Z,55.17
2022-08-17T19:10:28.877Z,55.61
2022-08-17T19:13:13.049Z,55.47
2022-08-17T19:16:14.443Z,56.21
2022-08-17T19:18:49.205Z,55.85
2022-08-17T19:21:23.087Z,56.55
2022-08-17T19:24:07.248Z,56.61
2022-08-17T19:26:53.318Z,57.00
2022-08-17T19:29:47.025Z,56.85
2022-08-17T19:32:18.565Z,56.97
2022-08-17T19:34:45.895Z,56.51
2022-08-17T19:37:22.438Z,56.78
2022-08-17T19:40:52.141Z,56.49
2022-08-17T19:43:48.484Z,56.80
2022-08-17T19:46:49.977Z,56.72
2022-08-17T19:49:41.473Z,56.82
2022-08-17T19:52:22.618Z,57.38
2022-08-17T19:55:02.456Z,57.56
2022-08-17T19:57:37.296Z,57.36
2022-08-17T20:00:14.257Z,58.09
2022-08-17T20:02:55.343Z,58.13
2022-08-17T20:06:10.831Z,58.38
2022-08-17T20:08:41.487Z,58.62
2022-08-17T20:11:13.855Z,58.52
2022-08-17T20:14:02.355Z,58.66
2022-08-17T20:16:30.724Z,58.95
2022-08-17T20:19:05.728Z,59.09
2022-08-17T20:21:42.273Z,59.29
2022-08-17T20:24:21.338Z,59.34
2022-08-17T20:27:17.810Z,59.71
2022-08-17T20:30:00.193Z,60.00
2022-08-17T20:32:29.798Z,60.34
2022-08-17T20:35:08.350Z,60.12
2022-08-17T20:37:36.815Z,59.75
2022-08-17T20:40:09.888Z,60.03
2022-08-17T20:42:38.440Z,59.92
2022-08-17T20:45:20.791Z,59.98
2022-08-17T20:48:18.694Z,60.28
2022-08-17T20:50:43.635Z,60.10
2022-08-17T20:53:15.132Z,59.85
2022-08-17T20:55:52.442Z,60.40
2022-08-17T20:58:24.498Z,60.88
2022-08-17T21:00:57.209Z,61.11
2022-08-17T21:03:24.370Z,61.16
2022-08-17T21:06:15.306Z,61.11
2022-08-17T21:08:57.658Z,61.70
2022-08-17T21:11:56.716Z,62.11
2022-08-17T21:14:20.277Z,62.45
2022-08-17T21:16:56.626Z,62.55
2022-08-17T21:20:10.340Z,62.68
2022-08-17T21:23:00.295Z,62.47
2022-08-17T21:25:40.139Z,63.08
2022-08-17T21:28:30.093Z,63.32
2022-08-17T21:31:08.389Z,63.20
2022-08-17T21:33:38.806Z,63.22
2022-08-17T21:36:15.503Z,64.44
2022-08-17T21:38:49.025Z,64.70
2022-08-17T21:41:24.776Z,64.71
2022-08-17T21:43:58.253Z,64.36
2022-08-17T21:46:30.578Z,64.61
2022-08-17T21:49:13.456Z,64.83
2022-08-17T21:51:50.891Z,64.88
2022-08-17T21:54:21.178Z,65.01
2022-08-17T21:56:48.601Z,64.79
2022-08-17T21:59:21.972Z,65.20
2022-08-17T22:02:01.903Z,65.45
2022-08-17T22:04:35.583Z,65.71
2022-08-17T22:07:06.543Z,65.48
2022-08-17T22:09:50.584Z,65.65
2022-08-17T22:12:20.827Z,65.68
2022-08-17T22:14:54.306Z,65.91
2022-08-17T22:17:27.481Z,66.02
2022-08-17T22:20:19.659Z,66.18
2022-08-17T22:23:04.964Z,66.71
2022-08-17T22:25:36.188Z,67.21
2022-08-17T22:28:06.144Z,66.94
2022-08-17T22:30:40.048Z,67.64
2022-08-17T22:33:36.096Z,68.09
2022-08-17T22:36:24.325Z,68.28
2022-08-17T22:39:00.526Z,68.23
2022-08-17T22:41:54.339Z,68.42
2022-08-17T22:44:38.507Z,69.01
2022-08-17T22:47:15.539Z,69.05
2022-08-17T22:49:53.209Z,69.11
2022-08-17T22:52:31.563Z,69.24
2022-08-17T22:55:31.382Z,69.00
2022-08-17T22:58:18.137Z,69.20
2022-08-17T23:00:48.171Z,69.57
2022-08-17T23:03:22.240Z,69.71
2022-08-17T23:06:07.967Z,69.69
2022-08-17T23:08:46.299Z,69.85
2022-08-17T23:11:17.557Z,69.60
2022-08-17T23:13:45.940Z,69.87
2022-08-17T23:16:14.961Z,69.47
2022-08-17T23:18:41.908Z,69.14
2022-08-17T23:21:08.905Z,69.20
2022-08-17T23:23:43.805Z,69.02
2022-08-17T23:26:11.292Z,69.33
2022-08-17T23:28:38.307Z,69.69
2022-08-17T23:31:05.605Z,69.79
2022-08-17T23:33:38.625Z,69.45
2022-08-17T23:36:07.496Z,69.80
2022-08-17T23:38:35.170Z,69.61
2022-08-17T23:41:05.684Z,69.73
2022-08-17T23:43:33.051Z,69.61
2022-08-17T23:46:00.661Z,70.19
2022-08-17T23:48:35.919Z,70.40
2022-08-17T23:51:09.087Z,70.59
2022-08-17T23:53:37.566Z,70.76
2022-08-17T23:56:10.361Z,71.17
2022-08-17T23:58:45.897Z,70.95
